createdAt,value
2017-12-28T00:18:34.221Z,90.00
2017-12-28T00:19:54.809Z,90.19
2017-12-28T00:20:33.766Z,89.43
2017-12-28T00:21:34.222Z,87.63
2017-12-28T00:22:45.928Z,87.25
2017-12-28T00:23:38.914Z,86.68
2017-12-28T00:24:33.711Z,86.49
2017-12-28T00:25:54.857Z,86.59
2017-12-28T00:26:33.784Z,86.78
2017-12-28T01:37:44.697Z,87.87
2017-12-28T05:03:44.900Z,89.53
2017-12-28T05:04:44.853Z,89.53
2017-12-28T05:05:44.814Z,89.53
2017-12-28T05:06:47.466Z,90.01
2017-12-28T05:07:44.789Z,89.82
2017-12-28T05:08:44.778Z,89.82
2017-12-28T05:09:44.742Z,89.82
2017-12-28T05:11:05.760Z,90.15
2017-12-28T05:11:44.727Z,90.05
2017-12-28T05:12:44.693Z,89.91
2017-12-28T05:13:44.653Z,90.05
2017-12-28T05:14:44.654Z,90.05
2017-12-28T05:15:44.635Z,89.67
2017-12-28T05:16:44.665Z,89.96
2017-12-28T05:17:44.602Z,89.86
2017-12-28T05:18:44.593Z,89.67
2017-12-28T05:19:44.567Z,89.67
2017-12-28T05:20:44.543Z,89.29
2017-12-28T05:21:44.588Z,89.86
2017-12-28T05:22:44.512Z,89.67
2017-12-28T05:23:44.521Z,89.67
2017-12-28T05:24:44.483Z,89.20
2017-12-28T05:25:44.447Z,89.58
2017-12-28T05:26:44.445Z,89.67
2017-12-28T05:27:44.467Z,89.20
2017-12-28T05:28:44.471Z,89.39
2017-12-28T05:29:44.373Z,89.29
2017-12-28T05:30:44.359Z,88.44
2017-12-28T05:31:44.340Z,89.29
2017-12-28T05:32:44.324Z,88.44
2017-12-28T05:33:44.310Z,88.44
2017-12-28T05:34:44.304Z,89.39
2017-12-28T05:35:44.267Z,88.54
2017-12-28T05:36:44.276Z,88.54
2017-12-28T05:37:45.054Z,88.82
2017-12-28T05:38:44.217Z,88.82
2017-12-28T05:39:44.187Z,88.82
2017-12-28T05:40:44.178Z,88.82
2017-12-28T05:41:44.149Z,88.54
2017-12-28T05:42:44.165Z,88.82
2017-12-28T05:43:44.117Z,88.63
2017-12-28T05:44:44.103Z,88.63
2017-12-28T05:45:44.078Z,89.01
2017-12-28T05:46:44.069Z,89.39
2017-12-28T05:47:44.111Z,89.01
2017-12-28T05:48:44.006Z,88.63
2017-12-28T05:49:44.002Z,88.82
2017-12-28T05:50:43.988Z,88.82
2017-12-28T05:51:43.988Z,88.54
2017-12-28T05:52:43.946Z,88.06
2017-12-28T05:53:43.940Z,88.06
2017-12-28T05:54:43.900Z,88.44
2017-12-28T05:55:43.905Z,88.35
2017-12-28T05:56:43.947Z,88.92
2017-12-28T05:57:43.873Z,88.25
2017-12-28T05:58:43.844Z,87.97
2017-12-28T05:59:43.849Z,88.44
2017-12-28T06:00:43.809Z,88.63
2017-12-28T06:01:43.827Z,88.35
2017-12-28T06:02:43.766Z,88.82
2017-12-28T06:03:43.757Z,88.73
2017-12-28T06:04:43.714Z,88.16
2017-12-28T06:05:43.730Z,88.25
2017-12-28T06:06:43.685Z,88.16
2017-12-28T06:07:43.718Z,88.06
2017-12-28T06:08:43.696Z,87.77
2017-12-28T06:09:43.651Z,88.06
2017-12-28T06:10:43.607Z,88.16
2017-12-28T06:11:43.579Z,88.06
2017-12-28T06:12:43.578Z,87.97
2017-12-28T06:13:43.603Z,87.77
2017-12-28T06:14:44.463Z,88.25
2017-12-28T06:15:43.535Z,88.06
2017-12-28T06:16:43.517Z,88.25
2017-12-28T06:17:43.504Z,87.12
2017-12-28T06:18:43.508Z,87.49
2017-12-28T06:19:43.485Z,87.68
2017-12-28T06:20:43.463Z,87.77
2017-12-28T06:21:43.413Z,87.40
2017-12-28T06:22:43.381Z,88.06
2017-12-28T06:23:43.367Z,87.87
2017-12-28T06:24:43.360Z,87.77
2017-12-28T06:25:43.362Z,87.87
2017-12-28T06:26:43.343Z,87.30
2017-12-28T06:27:43.384Z,87.30
2017-12-28T06:28:43.275Z,86.93
2017-12-28T06:29:43.266Z,87.21
2017-12-28T06:30:43.246Z,87.30
2017-12-28T06:31:43.246Z,87.68
2017-12-28T06:32:43.219Z,86.69
2017-12-28T06:33:43.232Z,87.30
2017-12-28T06:34:43.279Z,87.68
2017-12-28T06:35:43.158Z,86.93
2017-12-28T06:36:43.158Z,86.64
2017-12-28T06:37:43.115Z,86.74
2017-12-28T06:38:43.172Z,87.12
2017-12-28T06:39:43.072Z,86.64
2017-12-28T06:40:43.065Z,86.79
2017-12-28T06:41:43.046Z,86.74
2017-12-28T06:42:43.022Z,86.79
2017-12-28T06:43:43.012Z,86.98
2017-12-28T06:44:42.994Z,87.16
2017-12-28T06:45:42.958Z,86.50
2017-12-28T06:46:43.465Z,86.88
2017-12-28T06:47:42.939Z,86.60
2017-12-28T06:48:42.913Z,86.79
2017-12-28T06:49:42.961Z,86.79
2017-12-28T06:50:42.875Z,86.69
2017-12-28T06:51:42.836Z,86.31
2017-12-28T06:52:42.821Z,86.88
2017-12-28T06:53:42.829Z,86.31
2017-12-28T06:54:42.818Z,86.88
2017-12-28T06:55:42.818Z,86.79
2017-12-28T06:56:42.755Z,86.79
2017-12-28T06:57:42.779Z,86.98
2017-12-28T06:58:42.777Z,86.88
2017-12-28T06:59:42.696Z,86.31
2017-12-28T07:00:42.685Z,86.79
2017-12-28T07:01:42.672Z,87.26
2017-12-28T07:02:42.647Z,86.69
2017-12-28T07:03:42.640Z,86.60
2017-12-28T07:04:42.599Z,86.98
2017-12-28T07:05:42.584Z,86.60
2017-12-28T07:06:42.569Z,86.69
2017-12-28T07:07:42.541Z,86.50
2017-12-28T07:08:42.527Z,86.41
2017-12-28T07:09:42.564Z,86.79
2017-12-28T07:10:42.481Z,86.98
2017-12-28T07:11:42.476Z,86.31
2017-12-28T07:12:42.466Z,86.31
2017-12-28T07:13:42.445Z,86.98
2017-12-28T07:14:42.441Z,87.07
2017-12-28T07:15:42.441Z,86.50
2017-12-28T07:16:42.372Z,86.60
2017-12-28T07:17:42.421Z,86.98
2017-12-28T07:18:42.358Z,86.50
2017-12-28T07:19:42.339Z,86.79
2017-12-28T07:20:42.331Z,86.60
2017-12-28T07:21:42.308Z,86.60
2017-12-28T07:22:42.279Z,86.69
2017-12-28T07:23:42.296Z,86.69
2017-12-28T07:24:42.311Z,86.12
2017-12-28T07:25:42.195Z,85.74
2017-12-28T07:26:42.192Z,86.60
2017-12-28T07:27:42.179Z,86.50
2017-12-28T07:28:42.151Z,86.98
2017-12-28T07:29:42.150Z,86.88
2017-12-28T07:30:42.187Z,86.50
2017-12-28T07:31:42.115Z,86.50
2017-12-28T07:32:42.079Z,86.31
2017-12-28T07:33:42.064Z,86.50
2017-12-28T07:34:42.041Z,85.84
2017-12-28T07:35:42.020Z,86.31
2017-12-28T07:36:42.019Z,85.93
2017-12-28T07:37:42.010Z,85.93
2017-12-28T07:38:41.995Z,85.84
2017-12-28T07:39:41.956Z,85.74
2017-12-28T07:40:41.975Z,86.03
2017-12-28T07:41:41.930Z,85.74
2017-12-28T07:42:41.914Z,86.60
2017-12-28T07:43:41.891Z,86.79
2017-12-28T07:44:41.897Z,86.98
2017-12-28T07:45:41.875Z,86.88
2017-12-28T07:46:41.832Z,86.69
2017-12-28T07:47:41.804Z,86.69
2017-12-28T07:48:41.796Z,86.79
2017-12-28T07:49:41.765Z,86.60
2017-12-28T07:50:41.828Z,86.69
2017-12-28T07:51:41.738Z,86.98
2017-12-28T07:52:41.786Z,86.79
2017-12-28T07:53:41.716Z,86.88
2017-12-28T07:54:41.672Z,86.60
2017-12-28T07:55:41.674Z,86.79
2017-12-28T07:56:41.807Z,86.50
2017-12-28T07:57:41.607Z,86.79
2017-12-28T07:58:41.613Z,86.88
2017-12-28T07:59:41.622Z,86.79
2017-12-28T08:00:41.574Z,86.69
2017-12-28T08:01:41.605Z,86.60
2017-12-28T08:02:41.515Z,86.88
2017-12-28T08:03:41.591Z,86.79
2017-12-28T08:04:41.498Z,86.88
2017-12-28T08:05:41.481Z,86.50
2017-12-28T08:06:41.434Z,86.98
2017-12-28T08:07:41.546Z,87.26
2017-12-28T08:08:41.421Z,86.60
2017-12-28T08:09:41.398Z,86.69
2017-12-28T08:10:41.371Z,86.50
2017-12-28T08:11:41.410Z,86.60
2017-12-28T08:12:41.346Z,86.31
2017-12-28T08:13:41.325Z,86.69
2017-12-28T08:14:41.323Z,86.98
2017-12-28T08:15:41.285Z,86.31
2017-12-28T08:16:41.250Z,86.50
2017-12-28T08:17:41.657Z,86.60
2017-12-28T08:18:41.697Z,86.88
2017-12-28T08:19:41.202Z,86.60
2017-12-28T08:20:41.180Z,86.88
2017-12-28T08:21:41.165Z,86.79
2017-12-28T08:22:41.153Z,87.07
2017-12-28T08:23:41.161Z,87.07
2017-12-28T08:24:41.119Z,87.16
2017-12-28T08:25:41.096Z,86.69
2017-12-28T08:26:41.072Z,86.41
2017-12-28T08:27:41.114Z,86.31
2017-12-28T08:28:41.965Z,86.50
2017-12-28T08:29:41.034Z,86.03
2017-12-28T08:30:40.998Z,86.50
2017-12-28T08:31:40.981Z,86.69
2017-12-28T08:32:40.944Z,86.60
2017-12-28T08:33:40.958Z,86.41
2017-12-28T08:34:40.934Z,86.60
2017-12-28T08:35:40.896Z,86.79
2017-12-28T08:36:40.895Z,86.79
2017-12-28T08:37:40.873Z,86.88
2017-12-28T08:38:40.858Z,86.41
2017-12-28T08:39:40.917Z,86.31
2017-12-28T08:40:40.823Z,86.69
2017-12-28T08:41:40.772Z,85.84
2017-12-28T08:42:41.506Z,86.31
2017-12-28T08:43:40.774Z,85.84
2017-12-28T08:44:40.738Z,86.03
2017-12-28T08:45:40.744Z,85.84
2017-12-28T08:46:40.708Z,86.12
2017-12-28T08:47:40.679Z,85.55
2017-12-28T08:48:40.678Z,86.12
2017-12-28T08:49:40.676Z,86.12
2017-12-28T08:50:40.631Z,85.65
2017-12-28T08:51:40.600Z,85.36
2017-12-28T08:52:40.589Z,85.27
2017-12-28T08:53:40.641Z,85.36
2017-12-28T08:54:40.552Z,85.55
2017-12-28T08:55:40.543Z,85.65
2017-12-28T08:56:40.522Z,85.65
2017-12-28T08:57:40.497Z,85.74
2017-12-28T08:58:40.474Z,85.55
2017-12-28T08:59:40.516Z,85.17
2017-12-28T09:00:40.461Z,84.61
2017-12-28T09:01:41.098Z,84.89
2017-12-28T09:02:40.376Z,84.80
2017-12-28T09:03:40.374Z,85.08
2017-12-28T09:04:40.371Z,85.55
2017-12-28T09:05:40.334Z,85.27
2017-12-28T09:06:41.017Z,85.17
2017-12-28T09:07:40.743Z,85.27
2017-12-28T09:08:40.311Z,85.84
2017-12-28T09:09:40.277Z,85.65
2017-12-28T09:10:40.235Z,85.55
2017-12-28T09:11:40.239Z,85.36
2017-12-28T09:12:40.218Z,85.55
2017-12-28T09:13:40.196Z,85.17
2017-12-28T09:14:40.190Z,85.84
2017-12-28T09:15:40.182Z,85.46
2017-12-28T09:16:40.139Z,85.46
2017-12-28T09:17:40.112Z,85.60
2017-12-28T09:18:40.488Z,84.99
2017-12-28T09:19:40.166Z,85.50
2017-12-28T09:20:40.113Z,85.46
2017-12-28T09:21:40.043Z,85.08
2017-12-28T09:22:40.063Z,85.41
2017-12-28T09:23:40.013Z,84.70
2017-12-28T09:24:39.977Z,84.89
2017-12-28T09:25:40.067Z,84.65
2017-12-28T09:26:39.942Z,85.13
2017-12-28T09:27:39.934Z,85.03
2017-12-28T09:28:39.932Z,85.13
2017-12-28T09:29:39.900Z,85.03
2017-12-28T09:30:39.870Z,85.13
2017-12-28T09:31:39.841Z,84.55
2017-12-28T09:32:39.840Z,84.65
2017-12-28T09:33:39.879Z,85.03
2017-12-28T09:34:39.800Z,84.46
2017-12-28T09:35:39.786Z,84.08
2017-12-28T09:36:39.774Z,84.46
2017-12-28T09:37:39.823Z,84.08
2017-12-28T09:38:39.747Z,84.46
2017-12-28T09:39:39.751Z,85.13
2017-12-28T09:40:39.686Z,84.65
2017-12-28T09:41:39.678Z,84.46
2017-12-28T09:42:39.867Z,84.17
2017-12-28T09:43:39.648Z,83.61
2017-12-28T09:44:39.603Z,84.17
2017-12-28T09:45:39.595Z,84.27
2017-12-28T09:46:40.241Z,84.55
2017-12-28T09:47:39.565Z,84.46
2017-12-28T09:48:39.543Z,83.23
2017-12-28T09:49:39.540Z,83.70
2017-12-28T09:50:39.581Z,84.46
2017-12-28T09:51:39.499Z,84.46
2017-12-28T09:52:39.457Z,83.70
2017-12-28T09:53:39.449Z,83.42
2017-12-28T09:54:39.452Z,83.70
2017-12-28T09:55:39.414Z,83.51
2017-12-28T09:56:39.937Z,84.08
2017-12-28T09:57:39.394Z,83.70
2017-12-28T09:58:39.350Z,83.42
2017-12-28T09:59:39.339Z,83.61
2017-12-28T10:00:39.321Z,82.85
2017-12-28T10:01:39.370Z,82.94
2017-12-28T10:02:39.290Z,83.80
2017-12-28T10:03:39.266Z,83.80
2017-12-28T10:04:39.295Z,83.13
2017-12-28T10:05:39.238Z,83.13
2017-12-28T10:06:39.283Z,83.42
2017-12-28T10:07:39.221Z,83.13
2017-12-28T10:08:39.183Z,83.04
2017-12-28T10:09:39.180Z,83.70
2017-12-28T10:10:39.158Z,84.55
2017-12-28T10:11:39.140Z,83.61
2017-12-28T10:12:39.192Z,83.80
2017-12-28T10:13:39.102Z,83.80
2017-12-28T10:14:39.102Z,83.61
2017-12-28T10:15:39.046Z,83.42
2017-12-28T10:16:39.031Z,83.70
2017-12-28T10:17:39.040Z,83.23
2017-12-28T10:18:39.077Z,82.85
2017-12-28T10:19:38.981Z,83.13
2017-12-28T10:20:38.954Z,83.70
2017-12-28T10:21:38.935Z,82.85
2017-12-28T10:22:38.912Z,82.75
2017-12-28T10:23:38.892Z,82.56
2017-12-28T10:24:38.910Z,81.99
2017-12-28T10:25:38.880Z,82.66
2017-12-28T10:26:38.857Z,82.28
2017-12-28T10:27:38.848Z,81.81
2017-12-28T10:28:38.821Z,82.09
2017-12-28T10:29:38.817Z,82.09
2017-12-28T10:30:38.792Z,82.66
2017-12-28T10:31:38.778Z,82.47
2017-12-28T10:32:38.752Z,82.28
2017-12-28T10:33:38.734Z,82.28
2017-12-28T10:34:38.738Z,82.56
2017-12-28T10:35:38.693Z,82.66
2017-12-28T10:36:38.678Z,82.66
2017-12-28T10:37:38.659Z,82.66
2017-12-28T10:38:38.633Z,82.94
2017-12-28T10:39:38.616Z,83.23
2017-12-28T10:40:38.615Z,82.66
2017-12-28T10:41:38.579Z,82.85
2017-12-28T10:42:38.612Z,82.47
2017-12-28T10:43:38.581Z,82.56
2017-12-28T10:44:38.545Z,81.43
2017-12-28T10:45:38.521Z,81.81
2017-12-28T10:46:38.486Z,81.90
2017-12-28T10:47:38.483Z,81.24
2017-12-28T10:48:38.499Z,81.99
2017-12-28T10:49:38.460Z,81.52
2017-12-28T10:50:38.437Z,80.86
2017-12-28T10:51:38.421Z,81.90
2017-12-28T10:52:38.391Z,81.33
2017-12-28T10:53:38.355Z,81.14
2017-12-28T10:54:38.375Z,81.33
2017-12-28T10:55:38.317Z,81.99
2017-12-28T10:56:38.323Z,80.90
2017-12-28T10:57:38.291Z,80.86
2017-12-28T10:58:38.275Z,80.76
2017-12-28T10:59:38.316Z,80.90
2017-12-28T11:00:38.247Z,80.67
2017-12-28T11:01:38.214Z,80.95
2017-12-28T11:02:38.191Z,80.76
2017-12-28T11:03:38.194Z,80.67
2017-12-28T11:04:38.149Z,80.38
2017-12-28T11:05:38.178Z,80.90
2017-12-28T11:06:38.146Z,80.57
2017-12-28T11:07:38.118Z,80.52
2017-12-28T11:08:38.088Z,80.24
2017-12-28T11:09:38.111Z,80.90
2017-12-28T11:10:38.081Z,80.90
2017-12-28T11:11:38.057Z,80.99
2017-12-28T11:12:38.038Z,80.48
2017-12-28T11:13:38.003Z,80.99
2017-12-28T11:14:38.006Z,80.76
2017-12-28T11:15:37.976Z,80.48
2017-12-28T11:16:38.011Z,80.57
2017-12-28T11:17:37.949Z,80.95
2017-12-28T11:18:37.897Z,80.04
2017-12-28T11:19:37.877Z,80.43
2017-12-28T11:20:37.878Z,80.62
2017-12-28T11:21:37.854Z,80.24
2017-12-28T11:22:37.922Z,79.25
2017-12-28T11:23:37.848Z,80.19
2017-12-28T11:24:37.801Z,80.95
2017-12-28T11:25:37.788Z,79.82
2017-12-28T11:26:37.785Z,79.25
2017-12-28T11:27:37.747Z,80.29
2017-12-28T11:28:37.737Z,79.15
2017-12-28T11:29:38.262Z,79.25
2017-12-28T11:30:38.535Z,79.25
2017-12-28T11:31:37.693Z,79.34
2017-12-28T11:32:37.722Z,79.44
2017-12-28T11:33:38.343Z,79.25
2017-12-28T11:34:38.460Z,79.34
2017-12-28T11:35:37.594Z,79.53
2017-12-28T11:36:37.600Z,79.82
2017-12-28T11:37:37.579Z,79.57
2017-12-28T11:38:37.567Z,79.10
2017-12-28T11:39:37.541Z,79.47
2017-12-28T11:40:37.504Z,79.44
2017-12-28T11:41:37.561Z,79.19
2017-12-28T11:42:37.468Z,79.19
2017-12-28T11:43:37.461Z,79.66
2017-12-28T11:44:37.449Z,78.62
2017-12-28T11:45:37.413Z,78.05
2017-12-28T11:46:37.421Z,77.86
2017-12-28T11:47:37.417Z,78.15
2017-12-28T11:48:37.368Z,78.81
2017-12-28T11:49:37.349Z,78.43
2017-12-28T11:50:37.346Z,78.43
2017-12-28T11:51:37.306Z,77.39
2017-12-28T11:52:37.365Z,77.48
2017-12-28T11:53:37.278Z,77.29
2017-12-28T11:54:37.275Z,77.86
2017-12-28T11:55:37.249Z,77.48
2017-12-28T11:56:37.226Z,77.39
2017-12-28T11:57:37.231Z,77.20
2017-12-28T11:58:37.184Z,77.39
2017-12-28T11:59:37.173Z,77.11
2017-12-28T12:00:37.151Z,77.29
2017-12-28T12:01:37.132Z,76.92
2017-12-28T12:02:37.164Z,76.34
2017-12-28T12:03:37.090Z,76.15
2017-12-28T12:04:37.103Z,75.31
2017-12-28T12:05:37.053Z,75.31
2017-12-28T12:06:37.068Z,74.73
2017-12-28T12:07:37.097Z,73.97
2017-12-28T12:08:37.014Z,74.64
2017-12-28T12:09:37.002Z,74.35
2017-12-28T12:10:36.976Z,74.35
2017-12-28T12:11:36.958Z,74.83
2017-12-28T12:12:36.996Z,74.45
2017-12-28T12:13:36.919Z,74.54
2017-12-28T12:14:36.911Z,74.26
2017-12-28T12:15:36.901Z,74.83
2017-12-28T12:16:36.863Z,74.83
2017-12-28T12:17:36.838Z,75.11
2017-12-28T12:18:36.834Z,74.26
2017-12-28T12:19:36.826Z,73.79
2017-12-28T12:20:36.798Z,73.03
2017-12-28T12:21:36.776Z,72.93
2017-12-28T12:22:36.765Z,72.08
2017-12-28T12:23:36.798Z,72.08
2017-12-28T12:24:36.740Z,72.64
2017-12-28T12:25:36.713Z,72.84
2017-12-28T12:26:36.740Z,72.55
2017-12-28T12:27:36.675Z,72.27
2017-12-28T12:28:36.661Z,73.31
2017-12-28T12:29:36.645Z,74.07
2017-12-28T12:30:36.643Z,72.93
2017-12-28T12:31:36.606Z,73.50
2017-12-28T12:32:36.652Z,73.63
2017-12-28T12:33:36.577Z,73.63
2017-12-28T12:34:36.555Z,73.31
2017-12-28T12:35:36.541Z,73.63
2017-12-28T12:36:36.514Z,73.35
2017-12-28T12:37:36.513Z,72.64
2017-12-28T12:38:36.488Z,72.27
2017-12-28T12:39:36.481Z,72.55
2017-12-28T12:40:36.445Z,72.27
2017-12-28T12:41:36.414Z,71.70
2017-12-28T12:42:36.401Z,71.98
2017-12-28T12:43:36.441Z,73.31
2017-12-28T12:44:36.380Z,72.93
2017-12-28T12:45:36.359Z,72.45
2017-12-28T12:46:36.351Z,72.27
2017-12-28T12:47:36.312Z,71.51
2017-12-28T12:48:36.312Z,72.27
2017-12-28T12:49:36.323Z,72.17
2017-12-28T12:50:36.271Z,72.21
2017-12-28T12:51:36.272Z,72.97
2017-12-28T12:52:36.978Z,72.27
2017-12-28T12:53:36.249Z,72.36
2017-12-28T12:54:36.273Z,72.64
2017-12-28T12:55:36.196Z,72.68
2017-12-28T12:56:36.165Z,72.21
2017-12-28T12:57:36.149Z,72.49
2017-12-28T12:58:36.145Z,72.11
2017-12-28T12:59:36.116Z,72.84
2017-12-28T13:00:36.114Z,72.21
2017-12-28T13:01:36.083Z,72.27
2017-12-28T13:02:36.050Z,72.64
2017-12-28T13:03:36.054Z,72.27
2017-12-28T13:04:36.043Z,72.36
2017-12-28T13:05:36.084Z,72.64
2017-12-28T13:06:36.010Z,72.55
2017-12-28T13:07:35.989Z,73.03
2017-12-28T13:08:35.963Z,73.50
2017-12-28T13:09:35.943Z,73.22
2017-12-28T13:10:35.924Z,73.41
2017-12-28T13:11:35.969Z,73.31
2017-12-28T13:12:35.897Z,73.31
2017-12-28T13:13:35.869Z,73.12
2017-12-28T13:14:35.849Z,73.41
2017-12-28T13:15:35.831Z,73.41
2017-12-28T13:16:35.813Z,73.69
2017-12-28T13:17:35.824Z,73.79
2017-12-28T13:18:35.782Z,74.16
2017-12-28T13:19:35.774Z,74.54
2017-12-28T13:20:35.753Z,74.64
2017-12-28T13:21:35.739Z,74.07
2017-12-28T13:22:35.751Z,74.26
2017-12-28T13:23:35.717Z,74.45
2017-12-28T13:24:35.672Z,74.83
2017-12-28T13:25:35.647Z,75.11
2017-12-28T13:26:35.652Z,74.83
2017-12-28T13:27:35.621Z,74.83
2017-12-28T13:28:35.648Z,74.64
2017-12-28T13:29:35.589Z,74.64
2017-12-28T13:30:35.564Z,74.54
2017-12-28T13:31:35.534Z,75.59
2017-12-28T13:32:35.531Z,75.02
2017-12-28T13:33:35.576Z,75.59
2017-12-28T13:34:35.483Z,74.64
2017-12-28T13:35:35.482Z,75.49
2017-12-28T13:36:35.448Z,75.78
2017-12-28T13:37:35.464Z,75.21
2017-12-28T13:38:35.418Z,74.83
2017-12-28T13:39:35.427Z,75.02
2017-12-28T13:40:35.399Z,75.31
2017-12-28T13:41:35.369Z,75.40
2017-12-28T13:42:35.364Z,75.31
2017-12-28T13:43:35.337Z,75.68
2017-12-28T13:44:35.390Z,76.25
2017-12-28T13:45:35.350Z,75.87
2017-12-28T13:46:35.288Z,75.21
2017-12-28T13:47:35.265Z,75.68
2017-12-28T13:48:35.249Z,75.11
2017-12-28T13:49:35.251Z,75.11
2017-12-28T13:50:35.211Z,75.02
2017-12-28T13:51:35.210Z,76.15
2017-12-28T13:52:35.176Z,76.39
2017-12-28T13:53:35.164Z,75.43
2017-12-28T13:54:35.154Z,75.24
2017-12-28T13:55:35.125Z,74.58
2017-12-28T13:56:35.160Z,74.87
2017-12-28T13:57:35.075Z,74.20
2017-12-28T13:58:35.082Z,72.88
2017-12-28T13:59:35.051Z,72.78
2017-12-28T14:00:35.052Z,73.54
2017-12-28T14:01:35.016Z,73.16
2017-12-28T14:02:35.018Z,72.97
2017-12-28T14:03:34.989Z,72.30
2017-12-28T14:04:35.027Z,72.02
2017-12-28T14:05:34.960Z,72.49
2017-12-28T14:06:34.932Z,72.02
2017-12-28T14:07:34.913Z,72.11
2017-12-28T14:08:34.898Z,71.17
2017-12-28T14:09:34.897Z,71.64
2017-12-28T14:10:34.903Z,72.11
2017-12-28T14:11:34.845Z,72.88
2017-12-28T14:12:34.849Z,72.21
2017-12-28T14:13:34.831Z,72.93
2017-12-28T14:14:34.789Z,73.41
2017-12-28T14:15:34.829Z,73.31
2017-12-28T14:16:34.773Z,73.60
2017-12-28T14:17:34.756Z,73.50
2017-12-28T14:18:34.748Z,73.50
2017-12-28T14:19:34.705Z,74.07
2017-12-28T14:20:34.713Z,75.21
2017-12-28T14:21:34.673Z,74.54
2017-12-28T14:22:34.661Z,74.54
2017-12-28T14:23:34.707Z,74.54
2017-12-28T14:24:34.638Z,74.83
2017-12-28T14:25:34.607Z,74.92
2017-12-28T14:26:34.595Z,75.02
2017-12-28T14:27:34.584Z,75.21
2017-12-28T14:28:34.564Z,74.83
2017-12-28T14:29:34.562Z,75.59
2017-12-28T14:30:34.519Z,74.92
2017-12-28T14:31:34.505Z,74.41
2017-12-28T14:32:34.479Z,75.02
2017-12-28T14:33:34.483Z,75.02
2017-12-28T14:34:34.516Z,74.54
2017-12-28T14:35:34.421Z,75.78
2017-12-28T14:36:34.414Z,75.74
2017-12-28T14:37:34.398Z,75.74
2017-12-28T14:38:34.388Z,75.45
2017-12-28T14:39:34.376Z,75.45
2017-12-28T14:40:34.402Z,75.64
2017-12-28T14:41:34.327Z,75.26
2017-12-28T14:42:34.291Z,75.17
2017-12-28T14:43:34.275Z,75.36
2017-12-28T14:44:34.280Z,74.60
2017-12-28T14:45:34.271Z,74.60
2017-12-28T14:46:34.225Z,74.51
2017-12-28T14:47:34.227Z,74.92
2017-12-28T14:48:34.204Z,75.17
2017-12-28T14:49:34.194Z,74.64
2017-12-28T14:50:34.159Z,75.36
2017-12-28T14:51:34.217Z,75.74
2017-12-28T14:52:34.109Z,75.45
2017-12-28T14:53:34.130Z,76.21
2017-12-28T14:54:34.084Z,75.26
2017-12-28T14:55:34.067Z,74.98
2017-12-28T14:56:34.060Z,75.17
2017-12-28T14:57:34.061Z,75.36
2017-12-28T14:58:34.021Z,75.59
2017-12-28T14:59:33.996Z,75.17
2017-12-28T15:00:33.966Z,75.17
2017-12-28T15:01:34.029Z,74.98
2017-12-28T15:02:33.943Z,75.07
2017-12-28T15:03:33.930Z,75.55
2017-12-28T15:04:33.920Z,75.45
2017-12-28T15:05:33.889Z,75.07
2017-12-28T15:06:33.878Z,75.36
2017-12-28T15:07:33.878Z,75.07
2017-12-28T15:08:33.821Z,75.17
2017-12-28T15:09:33.823Z,74.51
2017-12-28T15:10:33.802Z,74.41
2017-12-28T15:11:33.860Z,74.41
2017-12-28T15:12:33.748Z,75.26
2017-12-28T15:13:33.730Z,74.79
2017-12-28T15:14:33.710Z,74.60
2017-12-28T15:15:33.701Z,74.79
2017-12-28T15:16:33.683Z,75.07
2017-12-28T15:17:33.731Z,74.69
2017-12-28T15:18:33.639Z,75.45
2017-12-28T15:19:33.634Z,75.84
2017-12-28T15:20:33.632Z,75.64
2017-12-28T15:21:33.611Z,75.07
2017-12-28T15:22:33.575Z,74.79
2017-12-28T15:23:33.591Z,75.36
2017-12-28T15:24:33.553Z,74.98
2017-12-28T15:25:33.531Z,75.55
2017-12-28T15:26:33.513Z,75.45
2017-12-28T15:27:33.504Z,74.51
2017-12-28T15:28:33.524Z,75.64
2017-12-28T15:29:33.444Z,76.59
2017-12-28T15:30:33.431Z,77.16
2017-12-28T15:31:33.410Z,77.35
2017-12-28T15:32:33.392Z,77.45
2017-12-28T15:33:54.433Z,77.64
2017-12-28T15:34:33.362Z,77.06
2017-12-28T15:35:33.333Z,77.25
2017-12-28T15:36:33.310Z,77.64
2017-12-28T15:37:33.314Z,77.25
2017-12-28T15:38:33.288Z,77.35
2017-12-28T15:39:33.327Z,77.06
2017-12-28T15:40:33.263Z,76.78
2017-12-28T15:41:33.226Z,77.06
2017-12-28T15:42:33.193Z,76.59
2017-12-28T15:43:33.197Z,76.97
2017-12-28T15:44:33.178Z,76.59
2017-12-28T15:45:33.164Z,76.59
2017-12-28T15:46:33.150Z,75.93
2017-12-28T15:47:33.115Z,76.50
2017-12-28T15:48:33.111Z,76.78
2017-12-28T15:49:33.085Z,76.78
2017-12-28T15:50:33.104Z,76.97
2017-12-28T15:51:33.061Z,76.97
2017-12-28T15:52:33.061Z,76.78
2017-12-28T15:53:33.031Z,77.35
2017-12-28T15:54:33.025Z,76.59
2017-12-28T15:55:32.976Z,76.31
2017-12-28T15:56:32.952Z,76.78
2017-12-28T15:57:32.921Z,77.45
2017-12-28T15:58:32.928Z,77.06
2017-12-28T15:59:32.967Z,77.16
2017-12-28T16:00:32.875Z,77.35
2017-12-28T16:01:32.855Z,77.50
2017-12-28T16:02:32.842Z,77.45
2017-12-28T16:03:32.830Z,77.35
2017-12-28T16:04:32.813Z,77.78
2017-12-28T16:05:32.775Z,78.02
2017-12-28T16:06:32.768Z,78.02
2017-12-28T16:07:32.751Z,78.02
2017-12-28T16:08:32.740Z,78.02
2017-12-28T16:09:32.725Z,78.07
2017-12-28T16:10:32.705Z,78.16
2017-12-28T16:11:32.676Z,77.69
2017-12-28T16:12:32.768Z,79.02
2017-12-28T16:13:32.623Z,77.97
2017-12-28T16:14:32.604Z,78.83
2017-12-28T16:15:32.594Z,78.92
2017-12-28T16:16:32.591Z,78.07
2017-12-28T16:17:32.570Z,78.45
2017-12-28T16:18:32.597Z,78.92
2017-12-28T16:19:32.528Z,78.64
2017-12-28T16:20:32.514Z,78.11
2017-12-28T16:21:32.495Z,78.20
2017-12-28T16:22:32.477Z,78.30
2017-12-28T16:23:32.459Z,78.45
2017-12-28T16:24:32.483Z,78.73
2017-12-28T16:25:32.398Z,78.39
2017-12-28T16:26:32.390Z,78.64
2017-12-28T16:27:32.379Z,78.49
2017-12-28T16:28:32.355Z,78.54
2017-12-28T16:29:32.323Z,78.73
2017-12-28T16:30:32.322Z,78.20
2017-12-28T16:31:32.302Z,78.16
2017-12-28T16:32:32.264Z,78.16
2017-12-28T16:33:32.280Z,78.35
2017-12-28T16:34:32.324Z,78.77
2017-12-28T16:35:32.231Z,78.77
2017-12-28T16:36:32.219Z,78.07
2017-12-28T16:37:32.202Z,78.26
2017-12-28T16:38:32.164Z,77.78
2017-12-28T16:39:32.166Z,77.97
2017-12-28T16:40:32.154Z,78.07
2017-12-28T16:41:32.097Z,77.88
2017-12-28T16:42:32.105Z,77.97
2017-12-28T16:43:32.061Z,78.26
2017-12-28T16:44:32.057Z,78.20
2017-12-28T16:45:32.070Z,78.45
2017-12-28T16:46:32.021Z,78.26
2017-12-28T16:47:32.015Z,77.88
2017-12-28T16:48:31.995Z,78.16
2017-12-28T16:49:31.966Z,78.83
2017-12-28T16:50:31.964Z,78.64
2017-12-28T16:51:31.912Z,78.45
2017-12-28T16:52:31.914Z,78.26
2017-12-28T16:53:31.898Z,78.07
2017-12-28T16:54:31.856Z,78.16
2017-12-28T16:55:31.926Z,78.73
2017-12-28T16:56:31.845Z,78.54
2017-12-28T16:57:31.811Z,78.73
2017-12-28T16:58:31.795Z,78.67
2017-12-28T16:59:31.776Z,78.67
2017-12-28T17:00:31.770Z,78.45
2017-12-28T17:01:31.808Z,78.73
2017-12-28T17:02:31.749Z,78.35
2017-12-28T17:03:31.721Z,78.92
2017-12-28T17:04:31.685Z,78.73
2017-12-28T17:05:31.672Z,78.54
2017-12-28T17:06:31.661Z,78.16
2017-12-28T17:07:31.629Z,78.26
2017-12-28T17:08:31.604Z,78.16
2017-12-28T17:09:31.590Z,78.67
2017-12-28T17:10:31.583Z,78.35
2017-12-28T17:11:31.537Z,78.26
2017-12-28T17:12:31.564Z,78.16
2017-12-28T17:13:31.592Z,78.26
2017-12-28T17:14:31.485Z,78.16
2017-12-28T17:15:31.490Z,78.07
2017-12-28T17:16:31.456Z,78.64
2017-12-28T17:17:31.439Z,78.35
2017-12-28T17:18:31.416Z,78.45
2017-12-28T17:19:31.403Z,78.35
2017-12-28T17:20:31.384Z,79.21
2017-12-28T17:21:31.357Z,79.11
2017-12-28T17:22:31.353Z,79.30
2017-12-28T17:23:31.366Z,78.45
2017-12-28T17:24:31.373Z,78.73
2017-12-28T17:25:31.296Z,78.45
2017-12-28T17:26:31.266Z,78.54
2017-12-28T17:27:31.256Z,78.54
2017-12-28T17:28:31.246Z,78.92
2017-12-28T17:29:31.219Z,78.35
2017-12-28T17:30:31.243Z,78.92
2017-12-28T17:31:31.164Z,79.11
2017-12-28T17:32:31.183Z,78.92
2017-12-28T17:33:31.138Z,78.64
2017-12-28T17:34:31.168Z,78.73
2017-12-28T17:35:31.102Z,78.54
2017-12-28T17:36:31.083Z,78.54
2017-12-28T17:37:31.049Z,79.30
2017-12-28T17:38:31.051Z,79.58
2017-12-28T17:39:31.032Z,79.49
2017-12-28T17:40:31.050Z,79.39
2017-12-28T17:41:31.001Z,79.49
2017-12-28T17:42:30.961Z,79.49
2017-12-28T17:43:30.960Z,79.11
2017-12-28T17:44:30.937Z,79.11
2017-12-28T17:45:30.900Z,78.92